Time;durP1;ratioP1;P1;durP2;ratioP2;P2;SDS_P1;SDS_P2;PMS_P1;PMS_P2;Temp;Humidity;BMP_temperature;BMP_pressure;BME280_temperature;BME280_humidity;BME280_pressure;Samples;Min_cycle;Max_cycle;Signal;HPM_P1;HPM_P2
2022/06/30 00:00:05;;;;;;;8.55;4.05;;;20.80;99.90;;;;;;5016847;28;20086;-79
2022/06/30 00:02:30;;;;;;;8.32;4.00;;;20.80;99.90;;;;;;5046826;28;20825;-79
2022/06/30 00:04:56;;;;;;;8.75;3.83;;;20.80;99.90;;;;;;5046647;28;20033;-79
2022/06/30 00:07:22;;;;;;;7.90;3.90;;;20.80;99.90;;;;;;5033993;28;20037;-79
2022/06/30 00:09:47;;;;;;;9.25;4.03;;;20.80;99.90;;;;;;5031953;28;20511;-79
2022/06/30 00:12:13;;;;;;;8.23;4.00;;;20.80;99.90;;;;;;5033344;28;20492;-79
2022/06/30 00:14:39;;;;;;;9.43;4.13;;;20.70;99.90;;;;;;5017491;28;20530;-79
2022/06/30 00:17:06;;;;;;;8.68;4.10;;;20.80;99.90;;;;;;5032917;28;20475;-80
2022/06/30 00:19:32;;;;;;;9.10;4.47;;;20.70;99.90;;;;;;5050079;28;20053;-79
2022/06/30 00:21:58;;;;;;;8.10;4.05;;;20.70;99.90;;;;;;5016595;28;20076;-79
2022/06/30 00:24:24;;;;;;;8.93;4.55;;;20.70;99.90;;;;;;5033856;28;20084;-79
2022/06/30 00:26:50;;;;;;;9.93;4.70;;;20.70;99.90;;;;;;5033135;28;20045;-79
2022/06/30 00:29:16;;;;;;;9.82;4.50;;;20.60;99.90;;;;;;5030173;28;20373;-79
2022/06/30 00:31:41;;;;;;;11.40;4.60;;;20.60;99.90;;;;;;5050511;28;20410;-79
2022/06/30 00:34:07;;;;;;;11.38;4.93;;;20.60;99.90;;;;;;5053474;28;20037;-79
2022/06/30 00:36:33;;;;;;;10.82;4.32;;;20.60;99.90;;;;;;5069416;28;20097;-79
2022/06/30 00:38:59;;;;;;;10.10;4.68;;;20.60;99.90;;;;;;5059735;28;20044;-79
2022/06/30 00:41:24;;;;;;;9.15;4.55;;;20.50;99.90;;;;;;5019323;28;20533;-79
2022/06/30 00:43:51;;;;;;;8.48;4.45;;;20.50;99.90;;;;;;5036345;28;20033;-80
2022/06/30 00:46:17;;;;;;;8.68;4.57;;;20.40;99.90;;;;;;5052537;28;20040;-79
2022/06/30 00:48:43;;;;;;;8.85;4.38;;;20.40;99.90;;;;;;5064447;28;20085;-80
2022/06/30 00:51:10;;;;;;;8.85;4.20;;;20.20;99.90;;;;;;5052448;28;20044;-79
2022/06/30 00:53:38;;;;;;;8.85;4.28;;;20.20;99.90;;;;;;5071723;28;20045;-80
2022/06/30 00:56:05;;;;;;;9.43;4.20;;;20.10;99.90;;;;;;5072912;28;20489;-79
2022/06/30 00:58:38;;;;;;;10.25;4.13;;;20.10;99.90;;;;;;5056822;28;20392;-79
2022/06/30 01:01:12;;;;;;;7.63;3.60;;;20.00;99.90;;;;;;5072945;28;20101;-79
2022/06/30 01:03:38;;;;;;;8.15;4.00;;;20.00;99.90;;;;;;5056561;28;20123;-80
2022/06/30 01:06:05;;;;;;;8.25;3.72;;;20.00;99.90;;;;;;5036193;28;20535;-79
2022/06/30 01:08:32;;;;;;;8.13;3.80;;;20.00;99.90;;;;;;5036477;28;20102;-80
2022/06/30 01:13:43;;;;;;;7.70;3.42;;;19.90;99.90;;;;;;5069315;28;20052;-80
2022/06/30 01:16:10;;;;;;;10.45;3.78;;;19.90;99.90;;;;;;5035577;28;20037;-80
2022/06/30 01:18:36;;;;;;;8.25;3.30;;;19.80;99.90;;;;;;5053463;28;20049;-80
2022/06/30 01:21:03;;;;;;;8.70;3.35;;;19.80;99.90;;;;;;5034324;28;20114;-80
2022/06/30 01:23:28;;;;;;;7.63;3.20;;;19.80;99.90;;;;;;5052402;28;20221;-79
2022/06/30 01:25:54;;;;;;;7.63;3.08;;;19.70;99.90;;;;;;5055312;28;20036;-80
2022/06/30 01:28:20;;;;;;;6.95;3.00;;;19.70;99.90;;;;;;5057094;28;20138;-79
2022/06/30 01:30:46;;;;;;;6.88;2.95;;;19.70;99.90;;;;;;5052025;28;20048;-79
2022/06/30 01:33:12;;;;;;;9.32;3.40;;;19.70;99.90;;;;;;5068788;28;20047;-80
2022/06/30 01:35:38;;;;;;;6.75;2.78;;;19.60;99.90;;;;;;5051885;28;20044;-79
2022/06/30 01:38:04;;;;;;;8.32;3.00;;;19.60;99.90;;;;;;5068889;28;20045;-79
2022/06/30 01:40:35;;;;;;;7.10;3.03;;;19.60;99.90;;;;;;5051832;28;20080;-80
2022/06/30 01:43:05;;;;;;;7.25;2.97;;;19.60;99.90;;;;;;5068605;28;20048;-79
2022/06/30 01:45:32;;;;;;;7.80;3.00;;;19.60;99.90;;;;;;5052322;28;20116;-79
2022/06/30 01:47:58;;;;;;;7.15;3.00;;;19.60;99.90;;;;;;5051867;28;20120;-79
2022/06/30 01:50:26;;;;;;;7.30;2.97;;;19.60;99.90;;;;;;5052087;28;20119;-80
2022/06/30 01:52:52;;;;;;;7.97;2.90;;;19.60;99.90;;;;;;5051645;28;20040;-80
2022/06/30 01:55:18;;;;;;;7.30;2.78;;;19.60;99.90;;;;;;5061560;28;20055;-80
2022/06/30 01:57:44;;;;;;;7.88;2.95;;;19.60;99.90;;;;;;5068348;28;20040;-79
2022/06/30 02:00:13;;;;;;;6.70;2.83;;;19.50;99.90;;;;;;5019394;28;20555;-80
2022/06/30 02:02:40;;;;;;;8.70;2.80;;;19.50;99.90;;;;;;5051598;28;20135;-79
2022/06/30 02:05:06;;;;;;;7.13;2.70;;;19.50;99.90;;;;;;5067963;28;20041;-79
2022/06/30 02:07:35;;;;;;;6.70;2.80;;;19.50;99.90;;;;;;5068123;28;20037;-80
2022/06/30 02:10:01;;;;;;;6.35;2.53;;;19.50;99.90;;;;;;5052296;28;20348;-79
2022/06/30 02:12:45;;;;;;;8.95;3.00;;;19.40;99.90;;;;;;5051150;28;20040;-79
2022/06/30 02:15:15;;;;;;;9.00;3.15;;;19.40;99.90;;;;;;5044116;28;20178;-80
2022/06/30 02:17:41;;;;;;;8.68;3.00;;;19.40;99.90;;;;;;5071004;28;20485;-79
2022/06/30 02:20:08;;;;;;;7.25;3.22;;;19.30;99.90;;;;;;5071547;28;20131;-79
2022/06/30 02:22:39;;;;;;;10.40;3.30;;;19.30;99.90;;;;;;5087712;28;20036;-79
2022/06/30 02:25:06;;;;;;;7.82;3.10;;;19.30;99.90;;;;;;5071382;28;20302;-79
2022/06/30 02:27:32;;;;;;;6.93;3.00;;;19.30;99.90;;;;;;5054617;28;20066;-79
2022/06/30 02:29:58;;;;;;;7.38;3.10;;;19.30;99.90;;;;;;5088054;28;20059;-79
2022/06/30 02:32:23;;;;;;;9.40;3.20;;;19.20;99.90;;;;;;5087298;28;20039;-80
2022/06/30 02:34:51;;;;;;;8.35;3.50;;;19.20;99.90;;;;;;5071187;28;20036;-79
2022/06/30 02:37:17;;;;;;;7.75;3.20;;;19.20;99.90;;;;;;5070923;28;20036;-79
2022/06/30 02:39:43;;;;;;;9.50;3.10;;;19.20;99.90;;;;;;5054280;28;20392;-79
2022/06/30 02:42:09;;;;;;;8.90;3.30;;;19.20;99.90;;;;;;5087728;28;20031;-80
2022/06/30 02:44:34;;;;;;;9.25;3.33;;;19.10;99.90;;;;;;5087577;28;20470;-79
2022/06/30 02:47:01;;;;;;;8.43;3.15;;;19.10;99.90;;;;;;5070846;28;20044;-79
2022/06/30 02:49:26;;;;;;;8.05;3.40;;;19.00;99.90;;;;;;5054649;28;20044;-78
2022/06/30 02:51:52;;;;;;;8.30;3.60;;;19.00;99.90;;;;;;5033944;28;20438;-78
2022/06/30 02:54:18;;;;;;;8.88;3.33;;;19.00;99.90;;;;;;5059522;28;20036;-78
2022/06/30 02:56:44;;;;;;;7.97;3.40;;;18.90;99.90;;;;;;5053838;28;20466;-79
2022/06/30 02:59:10;;;;;;;9.00;3.53;;;18.80;99.90;;;;;;5070626;28;20112;-78
2022/06/30 03:01:36;;;;;;;9.55;3.40;;;18.80;99.90;;;;;;5046314;28;20461;-79
2022/06/30 03:04:02;;;;;;;7.60;3.08;;;18.70;99.90;;;;;;5067474;28;20309;-79
2022/06/30 03:06:29;;;;;;;9.10;3.70;;;18.70;99.90;;;;;;5050442;28;20467;-79
2022/06/30 03:08:59;;;;;;;10.07;4.10;;;18.60;99.90;;;;;;5033873;28;20043;-80
2022/06/30 03:11:26;;;;;;;7.75;3.65;;;18.50;99.90;;;;;;5050504;28;20041;-79
2022/06/30 03:13:52;;;;;;;9.07;4.07;;;18.40;99.90;;;;;;5067674;28;20068;-79
2022/06/30 03:16:18;;;;;;;8.02;3.80;;;18.30;99.90;;;;;;5050202;28;20296;-79
2022/06/30 03:18:44;;;;;;;11.27;4.20;;;18.30;99.90;;;;;;5056231;28;20277;-79
2022/06/30 03:21:10;;;;;;;10.30;4.25;;;18.20;99.90;;;;;;5053466;28;20052;-79
2022/06/30 03:23:36;;;;;;;8.73;4.30;;;18.80;99.90;;;;;;5087217;28;20036;-79
2022/06/30 03:26:03;;;;;;;8.38;4.10;;;18.10;99.90;;;;;;5083049;28;20033;-79
2022/06/30 03:28:29;;;;;;;11.90;4.93;;;18.00;99.90;;;;;;5034274;28;20044;-79
2022/06/30 03:30:55;;;;;;;8.88;4.75;;;18.00;99.90;;;;;;5050010;28;20506;-79
2022/06/30 03:33:20;;;;;;;8.77;4.63;;;17.90;99.90;;;;;;5050652;28;20044;-80
2022/06/30 03:35:47;;;;;;;9.63;4.35;;;17.90;99.90;;;;;;5067269;28;20049;-79
2022/06/30 03:38:14;;;;;;;9.23;4.22;;;17.90;99.90;;;;;;5067394;28;20076;-80
2022/06/30 03:40:40;;;;;;;8.63;4.65;;;17.90;99.90;;;;;;5066662;28;20143;-80
2022/06/30 03:43:06;;;;;;;8.77;4.40;;;17.80;99.90;;;;;;5051393;28;20215;-79
2022/06/30 03:45:33;;;;;;;10.30;4.40;;;17.80;99.90;;;;;;5053890;28;20506;-80
2022/06/30 03:48:01;;;;;;;8.63;4.47;;;17.80;99.90;;;;;;5037533;28;20078;-79
2022/06/30 03:50:27;;;;;;;8.82;4.47;;;17.80;99.90;;;;;;5054175;28;20102;-79
2022/06/30 03:52:53;;;;;;;9.13;4.40;;;17.70;99.90;;;;;;5053978;28;20041;-80
2022/06/30 03:55:19;;;;;;;9.35;4.60;;;17.70;99.90;;;;;;5070498;28;20040;-80
2022/06/30 03:57:46;;;;;;;12.05;4.80;;;17.70;99.90;;;;;;5090759;28;20048;-80
2022/06/30 04:00:12;;;;;;;10.57;4.40;;;17.70;99.90;;;;;;5045406;28;20040;-79
2022/06/30 04:02:38;;;;;;;9.52;4.30;;;17.60;99.90;;;;;;5036881;28;20037;-80
2022/06/30 04:05:05;;;;;;;9.43;4.43;;;17.60;99.90;;;;;;5054999;28;20524;-80
2022/06/30 04:07:31;;;;;;;8.73;4.43;;;17.60;99.90;;;;;;5055076;28;20036;-80
2022/06/30 04:09:56;;;;;;;9.77;4.88;;;17.60;99.90;;;;;;5070664;28;20040;-80
2022/06/30 04:12:22;;;;;;;8.85;4.38;;;17.60;99.90;;;;;;5020111;28;20429;-80
2022/06/30 04:14:48;;;;;;;8.90;4.60;;;17.60;99.90;;;;;;5037455;28;20043;-79
2022/06/30 04:17:14;;;;;;;8.88;4.00;;;17.70;99.90;;;;;;5036395;28;20045;-80
2022/06/30 04:19:39;;;;;;;10.07;4.60;;;17.60;99.90;;;;;;5053247;28;20093;-80
2022/06/30 04:22:06;;;;;;;9.02;4.57;;;17.60;99.90;;;;;;5053360;28;20098;-80
2022/06/30 04:24:32;;;;;;;9.07;4.10;;;17.60;99.90;;;;;;5053974;28;20437;-80
2022/06/30 04:26:58;;;;;;;11.35;4.50;;;17.60;99.90;;;;;;5053050;28;20565;-79
2022/06/30 04:29:23;;;;;;;8.35;4.13;;;17.60;99.90;;;;;;5053419;28;20132;-80
2022/06/30 04:34:34;;;;;;;10.25;4.32;;;17.70;99.90;;;;;;5055988;28;20345;-80
2022/06/30 04:36:59;;;;;;;10.00;3.95;;;17.80;99.90;;;;;;5019811;28;20106;-80
2022/06/30 04:39:25;;;;;;;7.78;4.10;;;17.90;99.90;;;;;;5036671;28;20048;-80
2022/06/30 04:41:51;;;;;;;10.88;4.28;;;18.00;99.90;;;;;;5052962;28;20470;-80
2022/06/30 04:44:16;;;;;;;9.75;4.43;;;18.00;99.90;;;;;;5053567;28;20036;-80
2022/06/30 04:46:42;;;;;;;9.32;3.90;;;18.10;99.90;;;;;;5053060;28;20528;-79
2022/06/30 04:49:08;;;;;;;8.52;3.75;;;18.20;99.90;;;;;;5079948;28;20339;-79
2022/06/30 04:51:33;;;;;;;9.05;4.10;;;18.30;99.90;;;;;;5052725;28;20051;-80
2022/06/30 04:53:59;;;;;;;9.25;3.97;;;18.40;99.90;;;;;;5059508;28;20039;-80
2022/06/30 04:56:25;;;;;;;8.98;4.30;;;18.50;99.90;;;;;;5059551;28;20451;-80
2022/06/30 04:58:51;;;;;;;8.23;3.88;;;18.50;99.90;;;;;;5058239;28;20044;-80
2022/06/30 05:01:16;;;;;;;8.68;4.10;;;18.60;99.90;;;;;;5055800;28;20068;-80
2022/06/30 05:03:42;;;;;;;8.07;3.72;;;18.70;99.90;;;;;;5056082;28;20036;-78
2022/06/30 05:06:08;;;;;;;11.95;4.22;;;18.80;99.90;;;;;;5055509;28;20123;-78
2022/06/30 05:08:34;;;;;;;10.68;4.00;;;18.90;99.90;;;;;;5089500;28;20036;-78
2022/06/30 05:11:00;;;;;;;8.38;3.60;;;19.00;99.90;;;;;;5056164;28;20036;-78
2022/06/30 05:13:26;;;;;;;10.93;4.00;;;19.10;99.90;;;;;;5039785;28;20036;-77
2022/06/30 05:15:52;;;;;;;8.98;3.90;;;19.20;99.90;;;;;;5071977;28;20553;-77
2022/06/30 05:18:18;;;;;;;8.85;3.55;;;19.30;99.90;;;;;;5069225;28;20056;-78
2022/06/30 05:20:44;;;;;;;18.25;13.13;;;19.40;99.90;;;;;;5035305;28;20128;-79
2022/06/30 05:23:10;;;;;;;26.33;18.15;;;19.40;99.90;;;;;;5035597;28;20387;-78
2022/06/30 05:28:23;;;;;;;21.20;15.75;;;19.70;99.90;;;;;;5072546;28;20360;-79
2022/06/30 05:30:49;;;;;;;17.38;12.50;;;19.80;99.90;;;;;;5035664;28;20207;-78
2022/06/30 05:33:15;;;;;;;16.17;10.98;;;19.80;99.90;;;;;;5035515;28;20643;-78
2022/06/30 05:35:42;;;;;;;14.75;8.90;;;19.90;99.90;;;;;;5051951;28;20048;-79
2022/06/30 05:38:08;;;;;;;12.55;7.80;;;20.00;99.90;;;;;;5035684;28;20048;-78
2022/06/30 05:40:33;;;;;;;13.00;7.22;;;20.10;99.90;;;;;;5051897;28;20044;-78
2022/06/30 05:42:59;;;;;;;11.27;6.03;;;20.20;99.90;;;;;;5052076;28;20032;-78
2022/06/30 05:45:25;;;;;;;11.95;5.80;;;20.30;99.90;;;;;;5052268;28;20458;-78
2022/06/30 05:47:52;;;;;;;9.30;4.85;;;20.40;99.90;;;;;;5051724;28;20040;-78
2022/06/30 05:50:21;;;;;;;9.07;4.35;;;20.50;99.90;;;;;;5035304;28;20036;-78
2022/06/30 05:52:49;;;;;;;10.40;3.88;;;20.60;99.90;;;;;;5051480;28;20059;-79
2022/06/30 05:55:14;;;;;;;10.70;4.00;;;20.70;99.90;;;;;;5045225;28;20123;-78
2022/06/30 05:57:51;;;;;;;8.30;3.55;;;20.80;99.90;;;;;;5058983;28;20119;-79
2022/06/30 06:00:19;;;;;;;7.70;3.42;;;20.90;99.90;;;;;;5065224;28;20475;-78
2022/06/30 06:02:45;;;;;;;8.52;3.28;;;20.90;99.90;;;;;;5051306;28;20044;-79
2022/06/30 06:05:11;;;;;;;10.43;4.00;;;21.00;99.90;;;;;;5034967;28;20039;-79
2022/06/30 06:07:37;;;;;;;8.88;3.80;;;21.10;99.90;;;;;;5067301;28;20040;-78
2022/06/30 06:10:03;;;;;;;8.82;3.63;;;21.20;99.90;;;;;;5051467;28;20110;-79
2022/06/30 06:12:29;;;;;;;10.07;4.03;;;21.30;99.90;;;;;;5051051;28;20119;-78
2022/06/30 06:14:55;;;;;;;10.15;4.28;;;21.30;99.90;;;;;;5068167;28;20037;-78
2022/06/30 06:17:21;;;;;;;9.10;4.03;;;21.40;99.90;;;;;;5050602;28;20068;-79
2022/06/30 06:19:47;;;;;;;8.85;3.97;;;21.50;99.90;;;;;;5034924;28;20047;-79
2022/06/30 06:22:12;;;;;;;10.05;4.10;;;21.50;99.90;;;;;;5051099;28;20048;-79
2022/06/30 06:24:38;;;;;;;11.05;3.95;;;21.60;99.90;;;;;;5035178;28;20036;-78
2022/06/30 06:27:04;;;;;;;8.40;3.92;;;21.70;99.90;;;;;;5050988;28;20037;-78
2022/06/30 06:29:30;;;;;;;8.32;4.05;;;21.80;99.90;;;;;;5051609;28;20454;-78
2022/06/30 06:31:56;;;;;;;10.77;4.57;;;21.90;99.90;;;;;;5034623;28;20120;-78
2022/06/30 06:34:21;;;;;;;10.82;4.57;;;22.00;99.90;;;;;;5051501;28;20071;-79
2022/06/30 06:36:47;;;;;;;10.88;4.68;;;22.00;99.90;;;;;;5051403;28;20485;-78
2022/06/30 06:39:13;;;;;;;9.30;4.32;;;22.00;99.90;;;;;;5051107;28;20515;-79
2022/06/30 06:41:39;;;;;;;9.60;4.57;;;22.10;99.90;;;;;;5051004;28;20105;-79
2022/06/30 06:44:05;;;;;;;10.50;4.57;;;22.20;99.90;;;;;;5034712;28;20040;-78
2022/06/30 06:46:31;;;;;;;9.80;4.38;;;22.20;99.90;;;;;;5033858;28;20044;-78
2022/06/30 06:49:06;;;;;;;11.25;4.65;;;22.30;99.90;;;;;;5067434;28;20359;-77
2022/06/30 06:51:33;;;;;;;8.98;4.10;;;22.30;99.90;;;;;;5081264;28;20115;-77
2022/06/30 06:54:00;;;;;;;8.43;4.30;;;22.40;99.90;;;;;;5056625;28;20036;-78
2022/06/30 06:56:26;;;;;;;8.93;4.65;;;22.40;99.90;;;;;;5087248;28;20055;-79
2022/06/30 06:58:51;;;;;;;9.60;4.80;;;22.50;99.90;;;;;;5054294;28;20036;-78
2022/06/30 07:01:17;;;;;;;10.48;4.45;;;22.60;99.90;;;;;;5037219;28;20036;-78
2022/06/30 07:03:43;;;;;;;10.20;4.80;;;22.70;99.90;;;;;;5070991;28;20032;-78
2022/06/30 07:06:09;;;;;;;8.65;4.07;;;22.70;99.90;;;;;;5053585;28;20035;-79
2022/06/30 07:08:35;;;;;;;8.63;4.35;;;22.80;99.90;;;;;;5054256;28;20040;-79
2022/06/30 07:11:03;;;;;;;11.77;4.55;;;23.40;99.90;;;;;;5070216;28;20047;-79
2022/06/30 07:13:29;;;;;;;12.70;4.45;;;23.10;99.90;;;;;;5087868;28;20060;-78
2022/06/30 07:15:55;;;;;;;8.85;3.78;;;23.20;99.90;;;;;;5053110;28;20180;-79
2022/06/30 07:18:21;;;;;;;10.38;4.22;;;23.30;99.90;;;;;;5052097;28;20102;-79
2022/06/30 07:20:48;;;;;;;8.43;3.90;;;23.30;99.90;;;;;;5069950;28;20059;-78
2022/06/30 07:23:14;;;;;;;8.73;4.00;;;23.40;99.90;;;;;;5074818;28;20466;-78
2022/06/30 07:25:40;;;;;;;9.10;3.70;;;23.50;99.90;;;;;;5090412;28;20044;-78
2022/06/30 07:28:06;;;;;;;9.25;3.80;;;23.60;99.90;;;;;;5071461;28;20055;-79
2022/06/30 07:30:32;;;;;;;8.90;3.97;;;23.70;99.90;;;;;;5037761;28;20063;-78
2022/06/30 07:32:58;;;;;;;9.90;3.75;;;23.70;99.90;;;;;;5054205;28;20119;-80
2022/06/30 07:35:24;;;;;;;8.98;3.90;;;23.80;99.90;;;;;;5054342;28;20036;-78
2022/06/30 07:37:50;;;;;;;8.85;3.92;;;24.00;99.90;;;;;;5054267;28;20036;-80
2022/06/30 07:40:16;;;;;;;8.93;3.63;;;24.00;99.90;;;;;;5054326;28;20188;-79
2022/06/30 07:42:42;;;;;;;10.38;4.00;;;24.10;99.90;;;;;;5037298;28;20463;-79
2022/06/30 07:45:09;;;;;;;9.93;3.90;;;24.10;99.90;;;;;;5054668;28;20115;-79
2022/06/30 07:47:34;;;;;;;8.73;4.00;;;24.20;99.90;;;;;;5037387;28;20043;-79
2022/06/30 07:50:00;;;;;;;9.48;3.75;;;24.30;99.90;;;;;;5071156;28;20052;-78
2022/06/30 07:52:26;;;;;;;8.15;3.78;;;24.50;99.90;;;;;;5020814;28;20391;-79
2022/06/30 07:54:52;;;;;;;9.98;4.28;;;24.60;99.90;;;;;;5067236;28;20090;-78
2022/06/30 07:57:21;;;;;;;9.05;3.60;;;24.70;99.90;;;;;;5090784;28;20048;-78
2022/06/30 07:59:47;;;;;;;9.57;4.20;;;24.70;99.90;;;;;;5081641;28;20059;-78
2022/06/30 08:02:13;;;;;;;8.50;3.85;;;24.90;99.90;;;;;;5036848;28;20554;-78
2022/06/30 08:04:39;;;;;;;10.20;4.28;;;24.90;99.90;;;;;;5070433;28;20033;-79
2022/06/30 08:07:05;;;;;;;12.13;4.40;;;25.10;99.90;;;;;;5056207;28;20127;-78
2022/06/30 08:09:31;;;;;;;10.20;4.45;;;25.10;99.90;;;;;;5070552;28;20105;-78
2022/06/30 08:11:57;;;;;;;9.57;4.72;;;25.20;99.90;;;;;;5036975;28;20150;-78
2022/06/30 08:14:23;;;;;;;10.15;4.07;;;25.20;99.90;;;;;;5053949;28;20049;-79
2022/06/30 08:16:49;;;;;;;11.00;4.72;;;25.30;99.90;;;;;;5053656;28;20090;-79
2022/06/30 08:19:16;;;;;;;11.02;4.97;;;25.40;99.90;;;;;;5036818;28;20125;-78
2022/06/30 08:21:43;;;;;;;9.13;4.47;;;25.20;99.90;;;;;;5053495;28;20036;-77
2022/06/30 08:24:09;;;;;;;9.13;4.30;;;25.40;99.90;;;;;;5070265;28;20048;-78
2022/06/30 08:26:34;;;;;;;10.18;4.15;;;25.50;99.90;;;;;;5053532;28;20044;-78
2022/06/30 08:29:00;;;;;;;10.05;4.30;;;25.50;99.90;;;;;;5053864;28;20036;-78
2022/06/30 08:31:28;;;;;;;9.43;4.32;;;25.60;99.90;;;;;;5052420;28;20078;-79
2022/06/30 08:33:54;;;;;;;10.50;4.57;;;25.70;99.90;;;;;;5037293;28;20449;-79
2022/06/30 08:36:20;;;;;;;10.65;4.60;;;25.70;99.90;;;;;;5069710;28;20044;-78
2022/06/30 08:38:46;;;;;;;9.80;4.80;;;25.70;99.90;;;;;;5037227;28;20058;-77
2022/06/30 08:43:59;;;;;;;9.73;4.53;;;25.90;99.90;;;;;;5055814;28;20048;-80
2022/06/30 08:46:26;;;;;;;12.75;4.55;;;26.00;99.90;;;;;;5069692;28;20036;-78
2022/06/30 08:48:53;;;;;;;10.60;4.22;;;26.10;99.90;;;;;;5051568;28;20036;-79
2022/06/30 08:51:20;;;;;;;8.85;4.30;;;26.20;99.90;;;;;;5072973;28;20556;-78
2022/06/30 08:53:55;;;;;;;8.63;4.65;;;26.30;99.90;;;;;;5073330;28;20459;-79
2022/06/30 08:56:23;;;;;;;9.70;4.45;;;26.40;99.90;;;;;;5060202;28;20052;-79
2022/06/30 08:58:51;;;;;;;10.05;4.75;;;26.40;99.90;;;;;;5072322;28;20140;-79
2022/06/30 09:01:20;;;;;;;10.10;4.85;;;26.60;99.90;;;;;;5089541;28;20047;-78
2022/06/30 09:03:46;;;;;;;8.70;4.50;;;26.60;99.90;;;;;;5056510;28;20040;-80
2022/06/30 09:06:12;;;;;;;9.20;4.57;;;26.70;99.90;;;;;;5089321;28;20107;-79
2022/06/30 09:08:38;;;;;;;9.48;4.20;;;26.70;99.90;;;;;;5073277;28;20036;-79
2022/06/30 09:11:04;;;;;;;9.07;4.55;;;26.80;99.90;;;;;;5055820;28;20550;-80
2022/06/30 09:13:44;;;;;;;9.35;4.72;;;26.80;99.90;;;;;;5072836;28;20044;-80
2022/06/30 09:16:11;;;;;;;9.13;4.40;;;27.00;99.90;;;;;;5089203;28;20119;-79
2022/06/30 09:18:38;;;;;;;9.82;4.40;;;27.00;99.90;;;;;;5050921;28;20052;-80
2022/06/30 09:21:16;;;;;;;11.05;4.85;;;27.00;99.90;;;;;;5052547;28;20112;-79
2022/06/30 09:23:46;;;;;;;9.70;4.65;;;27.10;99.90;;;;;;5053001;28;20036;-79
2022/06/30 09:26:20;;;;;;;9.55;4.82;;;27.10;99.90;;;;;;5057771;28;20067;-80
2022/06/30 09:28:53;;;;;;;9.38;4.50;;;27.20;99.90;;;;;;5082578;28;20116;-79
2022/06/30 09:31:38;;;;;;;9.45;4.93;;;27.30;99.90;;;;;;5068868;28;20499;-80
2022/06/30 09:34:18;;;;;;;9.60;4.95;;;27.40;99.90;;;;;;5052526;28;20628;-80
2022/06/30 09:36:46;;;;;;;8.50;4.45;;;27.50;99.90;;;;;;5052084;28;20051;-80
2022/06/30 09:39:15;;;;;;;9.30;5.07;;;27.50;99.90;;;;;;5069310;28;20051;-79
2022/06/30 09:41:42;;;;;;;9.57;5.10;;;28.00;99.90;;;;;;5051574;28;20425;-80
2022/06/30 09:44:18;;;;;;;10.52;5.45;;;27.50;99.90;;;;;;5068975;28;20068;-80
2022/06/30 09:47:08;;;;;;;10.77;5.45;;;27.70;99.90;;;;;;5051665;28;20169;-80
2022/06/30 09:49:42;;;;;;;8.20;4.75;;;27.70;99.90;;;;;;5062717;28;20048;-78
2022/06/30 09:52:25;;;;;;;10.90;5.57;;;27.70;99.90;;;;;;5068413;28;20048;-80
2022/06/30 09:55:02;;;;;;;10.75;5.63;;;27.70;99.90;;;;;;5081684;28;20036;-79
2022/06/30 09:57:36;;;;;;;10.95;5.50;;;27.70;99.90;;;;;;5089053;28;20115;-79
2022/06/30 10:00:10;;;;;;;10.70;6.25;;;27.70;99.90;;;;;;5052477;28;20503;-79
2022/06/30 10:02:41;;;;;;;10.15;5.50;;;27.70;99.90;;;;;;5051321;28;20119;-79
2022/06/30 10:05:09;;;;;;;10.50;6.70;;;27.70;99.90;;;;;;5056992;28;20055;-78
2022/06/30 10:07:35;;;;;;;10.73;5.78;;;27.80;99.90;;;;;;5068034;28;20048;-79
2022/06/30 10:10:15;;;;;;;10.35;5.72;;;27.80;99.90;;;;;;5051665;28;20045;-79
2022/06/30 10:12:45;;;;;;;8.73;5.05;;;27.80;99.90;;;;;;5067978;28;20041;-80
2022/06/30 10:15:13;;;;;;;12.75;6.25;;;27.80;99.90;;;;;;5068727;28;20047;-79
2022/06/30 10:17:48;;;;;;;11.48;6.22;;;27.90;99.90;;;;;;5067833;28;20060;-79
2022/06/30 10:20:15;;;;;;;11.38;5.70;;;28.00;99.90;;;;;;5035123;28;20048;-79
2022/06/30 10:22:41;;;;;;;10.73;5.57;;;28.10;99.90;;;;;;5051522;28;20093;-79
2022/06/30 10:25:08;;;;;;;9.50;5.47;;;28.20;99.90;;;;;;5051697;28;20119;-79
2022/06/30 10:27:34;;;;;;;10.60;5.70;;;28.30;99.90;;;;;;5034832;28;20470;-79
2022/06/30 10:30:10;;;;;;;9.80;6.00;;;28.30;99.90;;;;;;5051481;28;20047;-78
2022/06/30 10:33:04;;;;;;;10.40;5.95;;;28.40;99.90;;;;;;5051010;28;20256;-80
2022/06/30 10:35:41;;;;;;;10.95;5.90;;;28.50;99.90;;;;;;5051280;28;20052;-80
2022/06/30 10:38:23;;;;;;;11.18;5.57;;;28.60;99.90;;;;;;5068000;28;20495;-79
2022/06/30 10:41:00;;;;;;;10.93;5.82;;;28.50;99.90;;;;;;5067217;28;20048;-79
2022/06/30 10:43:26;;;;;;;11.05;6.68;;;28.50;99.90;;;;;;5051146;28;20431;-79
2022/06/30 10:45:59;;;;;;;10.38;6.28;;;28.60;99.90;;;;;;5050690;28;20115;-80
2022/06/30 10:48:29;;;;;;;10.60;6.28;;;28.70;99.90;;;;;;5079251;28;20531;-80
2022/06/30 10:50:56;;;;;;;10.77;6.90;;;28.80;99.90;;;;;;5071578;28;20052;-79
2022/06/30 10:53:42;;;;;;;10.77;6.18;;;28.80;99.90;;;;;;5051337;28;20499;-79
2022/06/30 10:56:09;;;;;;;9.90;6.00;;;28.90;99.90;;;;;;5087376;28;20044;-79
2022/06/30 10:58:35;;;;;;;11.07;5.82;;;29.00;99.90;;;;;;5060253;28;20045;-80
2022/06/30 11:01:18;;;;;;;13.95;6.57;;;29.00;99.90;;;;;;5034105;28;20090;-80
2022/06/30 11:03:50;;;;;;;12.30;6.85;;;29.10;99.90;;;;;;5068118;28;20403;-80
2022/06/30 11:06:16;;;;;;;11.02;6.40;;;29.20;99.90;;;;;;5067160;28;20051;-79
2022/06/30 11:08:48;;;;;;;10.73;6.28;;;29.30;99.90;;;;;;5034548;28;20119;-79
2022/06/30 11:11:22;;;;;;;11.73;6.47;;;29.50;99.90;;;;;;5067286;28;20155;-79
2022/06/30 11:13:56;;;;;;;11.27;6.43;;;29.40;99.90;;;;;;5050837;28;20044;-79
2022/06/30 11:16:23;;;;;;;11.35;6.20;;;29.20;99.90;;;;;;5066988;28;20563;-79
2022/06/30 11:18:48;;;;;;;11.77;6.53;;;29.00;99.90;;;;;;5037532;28;20052;-79
2022/06/30 11:21:15;;;;;;;9.93;6.18;;;28.70;99.90;;;;;;5033720;28;20453;-80
2022/06/30 11:23:43;;;;;;;9.55;5.80;;;28.50;99.90;;;;;;5067450;28;20036;-80
2022/06/30 11:28:56;;;;;;;10.38;6.40;;;28.20;99.90;;;;;;5087550;28;20036;-79
2022/06/30 11:31:36;;;;;;;10.52;5.70;;;28.00;99.90;;;;;;5053821;28;20035;-79
2022/06/30 11:34:02;;;;;;;9.20;5.88;;;27.90;99.90;;;;;;5087254;28;20079;-79
2022/06/30 11:36:28;;;;;;;11.55;6.35;;;27.80;99.90;;;;;;5070491;28;20075;-79
2022/06/30 11:39:04;;;;;;;9.75;5.93;;;27.70;99.90;;;;;;5053916;28;20040;-79
2022/06/30 11:44:17;;;;;;;11.23;6.40;;;27.60;99.90;;;;;;5087545;28;20209;-78
2022/06/30 11:46:53;;;;;;;11.02;6.10;;;27.50;99.90;;;;;;5070138;28;20111;-79
2022/06/30 11:49:20;;;;;;;9.52;5.82;;;27.50;99.90;;;;;;5087389;28;20047;-79
2022/06/30 11:51:46;;;;;;;9.18;5.88;;;27.40;99.90;;;;;;5070150;28;20489;-79
2022/06/30 11:54:14;;;;;;;10.00;6.07;;;27.40;99.90;;;;;;5080871;28;20044;-79
2022/06/30 11:56:58;;;;;;;10.52;6.35;;;27.40;99.90;;;;;;5080159;28;20044;-79
2022/06/30 11:59:24;;;;;;;9.82;6.00;;;27.30;99.90;;;;;;5054029;28;20152;-79
2022/06/30 12:02:07;;;;;;;9.80;5.88;;;27.30;99.90;;;;;;5036832;28;20093;-79
2022/06/30 12:04:34;;;;;;;10.77;5.70;;;27.30;99.90;;;;;;5087165;28;20447;-79
2022/06/30 12:07:04;;;;;;;11.63;5.82;;;27.10;99.90;;;;;;5057202;28;20516;-79
2022/06/30 12:09:31;;;;;;;9.63;5.53;;;27.00;99.90;;;;;;5054473;28;20064;-80
2022/06/30 12:11:58;;;;;;;10.75;5.70;;;26.70;99.90;;;;;;5070348;28;20037;-79
2022/06/30 12:14:25;;;;;;;12.07;5.32;;;26.40;99.90;;;;;;5037564;28;20040;-79
2022/06/30 12:16:57;;;;;;;9.43;4.97;;;26.10;99.90;;;;;;5053425;28;20032;-79
2022/06/30 12:19:25;;;;;;;10.13;5.43;;;26.00;99.90;;;;;;5053633;28;20061;-79
2022/06/30 12:21:52;;;;;;;10.65;5.45;;;25.90;99.90;;;;;;5070269;28;20143;-79
2022/06/30 12:24:19;;;;;;;9.65;5.65;;;25.90;99.90;;;;;;5037553;28;20093;-78
2022/06/30 12:26:58;;;;;;;10.07;5.07;;;25.80;99.90;;;;;;5053478;28;20070;-79
2022/06/30 12:29:26;;;;;;;9.02;5.30;;;25.80;99.90;;;;;;5053937;28;20044;-79
2022/06/30 12:32:03;;;;;;;11.68;5.88;;;25.50;99.90;;;;;;5053774;28;20120;-79
2022/06/30 12:34:31;;;;;;;12.65;5.93;;;25.60;99.90;;;;;;5053648;28;20059;-79
2022/06/30 12:37:03;;;;;;;11.48;5.97;;;25.80;99.90;;;;;;5069832;28;20041;-79
2022/06/30 12:39:32;;;;;;;10.05;5.95;;;26.10;99.90;;;;;;5053798;28;20040;-79
2022/06/30 12:42:03;;;;;;;11.63;6.55;;;26.20;99.90;;;;;;5053008;28;20127;-79
2022/06/30 12:44:35;;;;;;;11.55;6.22;;;26.30;99.90;;;;;;5053727;28;20051;-79
2022/06/30 12:47:08;;;;;;;11.00;6.18;;;26.40;99.90;;;;;;5036539;28;20742;-79
2022/06/30 12:49:35;;;;;;;10.02;5.50;;;26.70;99.90;;;;;;5070245;28;20067;-79
2022/06/30 12:52:12;;;;;;;9.77;5.20;;;27.00;99.90;;;;;;5069366;28;20085;-79
2022/06/30 12:54:52;;;;;;;10.02;5.20;;;27.30;99.90;;;;;;5064191;28;20551;-79
2022/06/30 12:57:18;;;;;;;8.82;4.95;;;27.60;99.90;;;;;;5072776;28;20207;-80
2022/06/30 12:59:46;;;;;;;9.95;5.18;;;27.70;99.90;;;;;;5056556;28;20215;-79
2022/06/30 13:02:14;;;;;;;10.13;5.80;;;27.70;99.90;;;;;;5056331;28;20110;-79